x

Cape Elizabeth- 45nm Nw Of Aberdeen, Wa (46041) Wave Buoy

10:50 - Wed 17th Sep 2014 All times are PDT. -7 hours from GMT.

  • Sig Wave height 6.9ft
  • Swell Direction
  • Peak Period 14s
  • Average Period 10s
  • Wind
    2mph, 4mph gusts
  • Sea Temp 58°f
  • Aire Temp 59°f
  • Sea Pressure 1008.4mb
  • Cape Elizabeth- 45nm Nw Of Aberdeen, Wa
  • Cape Elizabeth- 45nm Nw Of Aberdeen, Wa

More Historic Weather Station data

Upgrade to MSW Pro to gain access to the past 30 days of data for over 8000 Wavebouys and Weather Stations around the globe.

Join Pro

Comparision Forecast

View Surf forecast
   
mié 09/17 10:50 7ft 14s 10s 2 4 mph 1008.4mb 58f 59f
9:50 7ft 13s 10s 2 4 mph 1008.3mb 58f 58f
8:50 6.5ft 13s 10s 2
mph
1008.2mb 58f 58f
7:50 7ft 13s 10s 2 4 mph 1008mb 58f 58f
6:50 7ft 13s 10s 2 4 mph 1008mb 58f 58f
5:50 7ft 11s 10s 2 7 mph 1008mb 58f 58f
4:50 7.5ft 13s 11s 4
mph
1008.6mb 58f 59f
3:50 7ft 14s 10s 4 7 mph 1009mb 58f 59f
2:50 5.5ft 13s 9s 7 9 mph 1009.6mb 58f 59f
1:50 6.5ft 13s 10s 7 9 mph 1010.1mb 58f 59f
12:50 6.5ft 12s 10s 4 7 mph 1010.5mb 58f 59f
mar 09/16 11:50 6ft 14s 10s 4 7 mph 1010.9mb 58f 59f
10:50 6ft 14s 10s 7
mph
1011.1mb 58f 59f
9:50 6.5ft 14s 10s 7 9 mph 1011.2mb 58f 58f
8:50 6ft 13s 10s 7 9 mph 1011.3mb 58f 58f
7:50 7ft 14s 10s 7 9 mph 1011.4mb 58f 58f
6:50 7.5ft 14s 10s 7 9 mph 1011.6mb 58f 58f
5:50 6.5ft 14s 9s 9
mph
1011.9mb 58f 59f
4:50 7ft 15s 10s 7 9 mph 1012.3mb 58f 59f
3:50 6ft 14s 9s 9 11 mph 1012.5mb 58f 59f
2:50 5.5ft 14s 9s 9 11 mph 1012.8mb 58f 59f
1:50 5ft 15s 8s 9 11 mph 1012.9mb 58f 59f
12:50 4.5ft 15s 7s 9 11 mph 1012.8mb 58f 59f
11:50 5ft 15s 7s 11
mph
1012.8mb 58f 58f
10:50 4.5ft 15s 6s 11 13 mph 1012.7mb 57f 58f
9:50 4ft 15s 6s 11 13 mph 1012.4mb 58f 58f
8:50 4ft 15s 6s 11 13 mph 1012mb 58f 58f
7:50 3.5ft 15s 5s 11 13 mph 1011.5mb 57f 58f
6:50 3.5ft 21s 5s 13 18 mph 1011.3mb 58f 58f
5:50 3.5ft 15s 5s 13 18 mph 1011.1mb 58f 58f
4:50 3.5ft 15s 5s 16 18 mph 1011.2mb 58f 58f
3:50 3.5ft 21s 5s 13 18 mph 1011.6mb 57f 58f
2:50 3.5ft 16s 5s 13 16 mph 1011.8mb 57f 58f
1:50 3.5ft 16s 5s 13 16 mph 1011.6mb 57f 59f
12:50 3.5ft 16s 5s 13 16 mph 1011mb 57f 59f
lun 09/15 11:50 2.5ft 16s 5s 16 18 mph 1010.6mb 58f 59f
10:50 2.5ft 16s 6s 16 18 mph 1010.1mb 58f 59f
9:50 3ft 16s 7s 13
mph
1010.1mb 58f 58f
8:50 2.5ft 16s 6s 11 13 mph 1010.1mb 59f 57f
7:50 2.5ft 16s 8s 11
mph
1009.6mb 60f 59f
6:50 2.5ft 16s 8s 7
mph
1009.3mb 61f 62f
5:50 2.5ft 16s 8s 2
mph
1009.2mb 61f 64f
4:50 2.5ft 16s 9s 4
mph
1009.1mb 60f 63f
3:50 2.5ft 17s 7s 4
mph
1009.1mb 60f 64f
2:50 2.5ft 17s 7s 2
mph
1009.4mb 61f 66f
1:50 2.5ft 17s 7s 2 4 mph 1009.8mb 60f 65f
12:50 2.5ft 17s 8s 2 4 mph 1010mb 58f 65f
11:50 2.5ft 17s 7s  -  2 mph 1010.1mb 58f 64f
10:50 2.5ft 17s 7s  -  2 mph 1010.2mb 58f 63f
9:50 2.5ft 17s 8s 4
mph
1010.1mb 57f 62f
8:50 2.5ft 17s 7s 4
mph
1010.2mb 57f 61f
7:50 2.5ft 17s 7s 7
mph
1010.2mb 57f 60f
6:50 2.5ft 19s 7s 7
mph
1010.1mb 57f 59f
5:50 2.5ft 19s 7s 4
mph
1010mb 57f 60f
4:50 2.5ft 19s 7s 2 4 mph 1009.8mb 57f 59f
3:50 2.5ft 17s 7s 4
mph
1010mb 57f 60f
2:50 2.5ft 19s 6s 4 7 mph 1010.1mb 56f 59f
1:50 2.5ft 6s 6s 7
mph
1010.3mb 56f 58f
12:50 2.5ft 6s 6s 7 9 mph 1010.3mb 57f 59f
dom 09/14 11:50 2.5ft 6s 6s 4
mph
1010.2mb 57f 59f
10:50 2.5ft 19s 7s 7 9 mph 1010.1mb 57f 60f
9:50 2.5ft 19s 7s 4 7 mph 1010.2mb 58f 59f
8:50 2.5ft 6s 6s 7
mph
1010.3mb 58f 58f
7:50 2.5ft 21s 7s 7
mph
1010mb 58f 59f
6:50 2.5ft 7s 7s 7
mph
1010.3mb 59f 62f
5:50 2.5ft 7s 6s 7 9 mph 1010.3mb 59f 62f
4:50 2.5ft 13s 7s 7 9 mph 1010.5mb 59f 63f
3:50 2.5ft 14s 7s 7
mph
1011mb 59f 62f
2:50 2.5ft 7s 6s 4 7 mph 1011.4mb 59f 61f
1:50 2.5ft 14s 6s 7 9 mph 1011.7mb 58f 60f
12:50 2.5ft 6s 6s 4
mph
1011.9mb 58f 60f
11:50 2.5ft 7s 6s 4
mph
1012mb 57f 60f
10:50 2.5ft 14s 6s 2 4 mph 1012mb 56f 59f
9:50 2.5ft 14s 6s 2 4 mph 1011.8mb 56f 59f
8:50 3ft 7s 6s 2 4 mph 1011.7mb 56f 60f
7:50 2.5ft 9s 6s 2 4 mph 1011.5mb 56f 58f
6:50 3.5ft 9s 6s 4
mph
1011.2mb 56f 57f
5:50 3ft 7s 6s 2 4 mph 1010.8mb 56f 57f
4:50 3ft 7s 6s 4
mph
1011mb 56f 56f
3:50 3.5ft 9s 6s 4
mph
1010.8mb 56f 56f
2:50 3ft 15s 6s 4
mph
1010.9mb 56f 56f
1:50 3ft 7s 6s 7 9 mph 1010.9mb 56f 57f
12:50 3ft 7s 7s 4 7 mph 1010.7mb 56f 56f
sáb 09/13 11:50 3ft 7s 6s 7
mph
1010.6mb 56f 57f
10:50 3.5ft 7s 6s 9
mph
1010.5mb 56f 57f
9:50 3ft 8s 6s 9 11 mph 1010.6mb 56f 57f
8:50 3.5ft 7s 6s 7
mph
1010.5mb 56f 58f
7:50 3.5ft 6s 6s 9 11 mph 1010.4mb 57f 58f
6:50 3.5ft 7s 6s 11 13 mph 1010.6mb 58f 60f